sensor_id;sensor_type;location;lat;lon;timestamp;temperature;humidity
24103;DHT22;12278;53.058;9.028;2023-05-14T00:00:00;12.60;99.90
24103;DHT22;12278;53.058;9.028;2023-05-14T00:04:01;12.50;99.90
24103;DHT22;12278;53.058;9.028;2023-05-14T00:08:02;12.40;99.90
24103;DHT22;12278;53.058;9.028;2023-05-14T00:12:02;12.40;99.90
24103;DHT22;12278;53.058;9.028;2023-05-14T00:16:03;12.40;99.90
24103;DHT22;12278;53.058;9.028;2023-05-14T00:20:04;12.40;99.90
24103;DHT22;12278;53.058;9.028;2023-05-14T00:24:08;12.40;99.90
24103;DHT22;12278;53.058;9.028;2023-05-14T00:28:08;12.40;99.90
24103;DHT22;12278;53.058;9.028;2023-05-14T00:32:09;12.40;99.90
24103;DHT22;12278;53.058;9.028;2023-05-14T00:36:10;12.40;99.90
24103;DHT22;12278;53.058;9.028;2023-05-14T00:40:10;12.30;99.90
24103;DHT22;12278;53.058;9.028;2023-05-14T00:44:12;12.30;99.90
24103;DHT22;12278;53.058;9.028;2023-05-14T00:48:13;12.10;99.90
24103;DHT22;12278;53.058;9.028;2023-05-14T00:52:14;12.20;99.90
24103;DHT22;12278;53.058;9.028;2023-05-14T00:56:15;12.10;99.90
24103;DHT22;12278;53.058;9.028;2023-05-14T01:00:16;11.90;99.90
24103;DHT22;12278;53.058;9.028;2023-05-14T01:04:19;11.90;99.90
24103;DHT22;12278;53.058;9.028;2023-05-14T01:08:29;11.90;99.90
24103;DHT22;12278;53.058;9.028;2023-05-14T01:12:39;12.00;99.90
24103;DHT22;12278;53.058;9.028;2023-05-14T01:16:43;12.00;99.90
24103;DHT22;12278;53.058;9.028;2023-05-14T01:20:45;12.00;99.90
24103;DHT22;12278;53.058;9.028;2023-05-14T01:24:51;11.90;99.90
24103;DHT22;12278;53.058;9.028;2023-05-14T01:28:52;11.70;99.90
24103;DHT22;12278;53.058;9.028;2023-05-14T01:32:57;11.50;99.90
24103;DHT22;12278;53.058;9.028;2023-05-14T01:37:00;11.20;99.90
24103;DHT22;12278;53.058;9.028;2023-05-14T01:41:01;11.40;99.90
24103;DHT22;12278;53.058;9.028;2023-05-14T01:45:02;11.50;99.90
24103;DHT22;12278;53.058;9.028;2023-05-14T01:49:03;11.40;99.90
24103;DHT22;12278;53.058;9.028;2023-05-14T01:53:04;11.30;99.90
24103;DHT22;12278;53.058;9.028;2023-05-14T01:57:05;11.30;99.90
24103;DHT22;12278;53.058;9.028;2023-05-14T02:01:06;11.30;99.90
24103;DHT22;12278;53.058;9.028;2023-05-14T02:05:09;11.30;99.90
24103;DHT22;12278;53.058;9.028;2023-05-14T02:09:10;11.10;99.90
24103;DHT22;12278;53.058;9.028;2023-05-14T02:13:28;11.00;99.90
24103;DHT22;12278;53.058;9.028;2023-05-14T02:17:28;11.00;99.90
24103;DHT22;12278;53.058;9.028;2023-05-14T02:21:29;10.90;99.90
24103;DHT22;12278;53.058;9.028;2023-05-14T02:25:30;10.80;99.90
24103;DHT22;12278;53.058;9.028;2023-05-14T02:29:30;10.80;99.90
24103;DHT22;12278;53.058;9.028;2023-05-14T02:33:32;10.70;99.90
24103;DHT22;12278;53.058;9.028;2023-05-14T02:37:33;10.70;99.90
24103;DHT22;12278;53.058;9.028;2023-05-14T02:41:34;10.60;99.90
24103;DHT22;12278;53.058;9.028;2023-05-14T02:45:35;10.60;99.90
24103;DHT22;12278;53.058;9.028;2023-05-14T02:49:41;10.50;99.90
24103;DHT22;12278;53.058;9.028;2023-05-14T02:53:42;10.60;99.90
24103;DHT22;12278;53.058;9.028;2023-05-14T02:57:43;10.50;99.90
24103;DHT22;12278;53.058;9.028;2023-05-14T03:01:43;10.50;99.90
24103;DHT22;12278;53.058;9.028;2023-05-14T03:05:44;10.40;99.90
24103;DHT22;12278;53.058;9.028;2023-05-14T03:09:44;10.30;99.90
24103;DHT22;12278;53.058;9.028;2023-05-14T03:13:45;10.30;99.90
24103;DHT22;12278;53.058;9.028;2023-05-14T03:17:45;10.20;99.90
24103;DHT22;12278;53.058;9.028;2023-05-14T03:21:46;10.20;99.90
24103;DHT22;12278;53.058;9.028;2023-05-14T03:25:46;10.20;99.90
24103;DHT22;12278;53.058;9.028;2023-05-14T03:29:53;10.20;99.90
24103;DHT22;12278;53.058;9.028;2023-05-14T03:33:54;10.00;99.90
24103;DHT22;12278;53.058;9.028;2023-05-14T03:37:54;10.00;99.90
24103;DHT22;12278;53.058;9.028;2023-05-14T03:41:58;10.10;99.90
24103;DHT22;12278;53.058;9.028;2023-05-14T03:45:58;10.10;99.90
24103;DHT22;12278;53.058;9.028;2023-05-14T03:50:01;10.20;99.90
24103;DHT22;12278;53.058;9.028;2023-05-14T03:54:02;10.30;99.90
24103;DHT22;12278;53.058;9.028;2023-05-14T03:58:02;10.40;99.90
24103;DHT22;12278;53.058;9.028;2023-05-14T04:02:06;10.50;99.90
24103;DHT22;12278;53.058;9.028;2023-05-14T04:06:07;10.60;99.90
24103;DHT22;12278;53.058;9.028;2023-05-14T04:10:07;10.60;99.90
24103;DHT22;12278;53.058;9.028;2023-05-14T04:14:09;10.80;99.90
24103;DHT22;12278;53.058;9.028;2023-05-14T04:18:10;10.80;99.90
24103;DHT22;12278;53.058;9.028;2023-05-14T04:22:10;11.00;99.90
24103;DHT22;12278;53.058;9.028;2023-05-14T04:26:11;11.20;99.90
24103;DHT22;12278;53.058;9.028;2023-05-14T04:30:11;11.30;99.90
24103;DHT22;12278;53.058;9.028;2023-05-14T04:34:12;11.50;99.90
24103;DHT22;12278;53.058;9.028;2023-05-14T04:38:16;11.60;99.90
24103;DHT22;12278;53.058;9.028;2023-05-14T04:42:16;11.80;99.90
24103;DHT22;12278;53.058;9.028;2023-05-14T04:46:17;11.90;99.90
24103;DHT22;12278;53.058;9.028;2023-05-14T04:50:18;12.10;99.90
24103;DHT22;12278;53.058;9.028;2023-05-14T04:54:19;12.20;99.90
24103;DHT22;12278;53.058;9.028;2023-05-14T04:58:20;12.40;99.90
24103;DHT22;12278;53.058;9.028;2023-05-14T05:02:22;12.60;99.90
24103;DHT22;12278;53.058;9.028;2023-05-14T05:06:23;12.80;99.90
24103;DHT22;12278;53.058;9.028;2023-05-14T05:10:25;13.00;99.90
24103;DHT22;12278;53.058;9.028;2023-05-14T05:14:25;13.20;99.90
24103;DHT22;12278;53.058;9.028;2023-05-14T05:18:26;13.30;99.90
24103;DHT22;12278;53.058;9.028;2023-05-14T05:22:27;13.40;99.90
24103;DHT22;12278;53.058;9.028;2023-05-14T05:26:28;13.60;99.90
24103;DHT22;12278;53.058;9.028;2023-05-14T05:30:28;13.80;99.90
24103;DHT22;12278;53.058;9.028;2023-05-14T05:34:29;14.00;99.90
24103;DHT22;12278;53.058;9.028;2023-05-14T05:38:30;14.10;99.90
24103;DHT22;12278;53.058;9.028;2023-05-14T05:42:31;14.30;99.90
24103;DHT22;12278;53.058;9.028;2023-05-14T05:46:31;14.50;99.90
24103;DHT22;12278;53.058;9.028;2023-05-14T05:50:32;14.60;99.90
24103;DHT22;12278;53.058;9.028;2023-05-14T05:54:33;14.60;99.90
24103;DHT22;12278;53.058;9.028;2023-05-14T05:58:34;14.70;99.90
24103;DHT22;12278;53.058;9.028;2023-05-14T06:02:34;14.90;99.90
24103;DHT22;12278;53.058;9.028;2023-05-14T06:06:35;15.10;99.90
24103;DHT22;12278;53.058;9.028;2023-05-14T06:10:38;15.40;99.90
24103;DHT22;12278;53.058;9.028;2023-05-14T06:14:38;15.50;99.90
24103;DHT22;12278;53.058;9.028;2023-05-14T06:18:39;15.80;99.90
24103;DHT22;12278;53.058;9.028;2023-05-14T06:22:40;15.90;99.90
24103;DHT22;12278;53.058;9.028;2023-05-14T06:26:41;16.30;99.90
24103;DHT22;12278;53.058;9.028;2023-05-14T06:30:41;16.50;99.90
24103;DHT22;12278;53.058;9.028;2023-05-14T06:34:42;16.60;99.90
24103;DHT22;12278;53.058;9.028;2023-05-14T06:38:43;16.70;99.90
24103;DHT22;12278;53.058;9.028;2023-05-14T06:42:43;17.20;99.90
24103;DHT22;12278;53.058;9.028;2023-05-14T06:46:44;17.40;99.90
24103;DHT22;12278;53.058;9.028;2023-05-14T06:50:46;17.90;99.90
24103;DHT22;12278;53.058;9.028;2023-05-14T06:54:46;17.90;99.90
24103;DHT22;12278;53.058;9.028;2023-05-14T06:58:47;17.90;99.90
24103;DHT22;12278;53.058;9.028;2023-05-14T07:02:48;17.90;99.90
24103;DHT22;12278;53.058;9.028;2023-05-14T07:06:49;18.00;99.90
24103;DHT22;12278;53.058;9.028;2023-05-14T07:10:49;18.00;99.90
24103;DHT22;12278;53.058;9.028;2023-05-14T07:14:50;18.00;99.90
24103;DHT22;12278;53.058;9.028;2023-05-14T07:18:51;18.00;99.90
24103;DHT22;12278;53.058;9.028;2023-05-14T07:22:53;18.40;99.90
24103;DHT22;12278;53.058;9.028;2023-05-14T07:26:54;18.50;99.90
24103;DHT22;12278;53.058;9.028;2023-05-14T07:30:56;18.90;99.90
24103;DHT22;12278;53.058;9.028;2023-05-14T07:34:57;19.60;99.90
24103;DHT22;12278;53.058;9.028;2023-05-14T07:38:57;20.40;99.90
24103;DHT22;12278;53.058;9.028;2023-05-14T07:42:58;20.20;99.90
24103;DHT22;12278;53.058;9.028;2023-05-14T07:46:59;20.00;99.90
24103;DHT22;12278;53.058;9.028;2023-05-14T07:50:59;20.00;99.90
24103;DHT22;12278;53.058;9.028;2023-05-14T07:55:02;19.60;99.90
24103;DHT22;12278;53.058;9.028;2023-05-14T07:59:03;19.70;99.90
24103;DHT22;12278;53.058;9.028;2023-05-14T08:03:03;20.10;99.90
24103;DHT22;12278;53.058;9.028;2023-05-14T08:07:04;20.10;99.90
24103;DHT22;12278;53.058;9.028;2023-05-14T08:11:06;20.30;99.90
24103;DHT22;12278;53.058;9.028;2023-05-14T08:15:07;20.50;99.90
24103;DHT22;12278;53.058;9.028;2023-05-14T08:19:11;20.50;99.90
24103;DHT22;12278;53.058;9.028;2023-05-14T08:23:12;20.60;99.90
24103;DHT22;12278;53.058;9.028;2023-05-14T08:27:13;21.10;99.10
24103;DHT22;12278;53.058;9.028;2023-05-14T08:31:13;21.50;99.90
24103;DHT22;12278;53.058;9.028;2023-05-14T08:35:14;21.70;98.70
24103;DHT22;12278;53.058;9.028;2023-05-14T08:39:15;21.80;98.30
24103;DHT22;12278;53.058;9.028;2023-05-14T08:43:18;21.90;98.20
24103;DHT22;12278;53.058;9.028;2023-05-14T08:47:21;21.90;98.20
24103;DHT22;12278;53.058;9.028;2023-05-14T08:51:22;21.60;97.10
24103;DHT22;12278;53.058;9.028;2023-05-14T08:55:23;21.90;96.30
24103;DHT22;12278;53.058;9.028;2023-05-14T08:59:26;22.00;97.00
24103;DHT22;12278;53.058;9.028;2023-05-14T09:03:27;22.30;96.70
24103;DHT22;12278;53.058;9.028;2023-05-14T09:07:29;22.20;96.70
24103;DHT22;12278;53.058;9.028;2023-05-14T09:11:30;22.00;96.60
24103;DHT22;12278;53.058;9.028;2023-05-14T09:15:33;21.90;96.90
24103;DHT22;12278;53.058;9.028;2023-05-14T09:19:34;21.90;96.90
24103;DHT22;12278;53.058;9.028;2023-05-14T09:23:36;21.40;95.20
24103;DHT22;12278;53.058;9.028;2023-05-14T09:27:41;22.30;96.80
24103;DHT22;12278;53.058;9.028;2023-05-14T09:31:41;22.60;95.50
24103;DHT22;12278;53.058;9.028;2023-05-14T09:35:42;22.70;94.90
24103;DHT22;12278;53.058;9.028;2023-05-14T09:39:43;22.10;94.80
24103;DHT22;12278;53.058;9.028;2023-05-14T09:43:43;21.70;94.20
24103;DHT22;12278;53.058;9.028;2023-05-14T09:47:44;21.90;94.50
24103;DHT22;12278;53.058;9.028;2023-05-14T09:51:45;21.90;94.50
24103;DHT22;12278;53.058;9.028;2023-05-14T09:55:46;22.00;94.90
24103;DHT22;12278;53.058;9.028;2023-05-14T09:59:46;21.50;92.90
24103;DHT22;12278;53.058;9.028;2023-05-14T10:03:48;21.10;93.80
24103;DHT22;12278;53.058;9.028;2023-05-14T10:07:50;20.80;95.50
24103;DHT22;12278;53.058;9.028;2023-05-14T10:11:55;21.10;97.10
24103;DHT22;12278;53.058;9.028;2023-05-14T10:20:13;21.00;95.90
24103;DHT22;12278;53.058;9.028;2023-05-14T10:24:16;20.90;95.90
24103;DHT22;12278;53.058;9.028;2023-05-14T10:28:17;20.90;94.80
24103;DHT22;12278;53.058;9.028;2023-05-14T10:32:19;20.70;95.40
24103;DHT22;12278;53.058;9.028;2023-05-14T10:36:21;20.70;95.60
24103;DHT22;12278;53.058;9.028;2023-05-14T10:40:23;20.80;94.70
24103;DHT22;12278;53.058;9.028;2023-05-14T10:44:25;21.50;96.60
24103;DHT22;12278;53.058;9.028;2023-05-14T10:48:26;21.90;94.80
24103;DHT22;12278;53.058;9.028;2023-05-14T10:52:26;21.90;92.60
24103;DHT22;12278;53.058;9.028;2023-05-14T10:56:28;21.70;93.80
24103;DHT22;12278;53.058;9.028;2023-05-14T11:00:32;21.60;94.10
24103;DHT22;12278;53.058;9.028;2023-05-14T11:04:34;22.20;94.20
24103;DHT22;12278;53.058;9.028;2023-05-14T11:08:36;22.40;92.80
24103;DHT22;12278;53.058;9.028;2023-05-14T11:12:39;22.10;93.60
24103;DHT22;12278;53.058;9.028;2023-05-14T11:16:41;21.70;93.10
24103;DHT22;12278;53.058;9.028;2023-05-14T11:20:41;21.40;92.80
24103;DHT22;12278;53.058;9.028;2023-05-14T11:24:42;21.40;94.20
24103;DHT22;12278;53.058;9.028;2023-05-14T11:28:43;21.20;93.30
24103;DHT22;12278;53.058;9.028;2023-05-14T11:32:45;21.60;94.90
24103;DHT22;12278;53.058;9.028;2023-05-14T11:36:46;22.00;93.80
24103;DHT22;12278;53.058;9.028;2023-05-14T11:40:58;22.10;91.00
24103;DHT22;12278;53.058;9.028;2023-05-14T11:44:59;22.60;95.10
24103;DHT22;12278;53.058;9.028;2023-05-14T11:49:03;23.70;94.80
24103;DHT22;12278;53.058;9.028;2023-05-14T11:53:04;24.40;93.00
24103;DHT22;12278;53.058;9.028;2023-05-14T11:57:17;23.40;91.30
24103;DHT22;12278;53.058;9.028;2023-05-14T12:01:18;23.00;92.00
24103;DHT22;12278;53.058;9.028;2023-05-14T12:05:19;22.60;92.80
24103;DHT22;12278;53.058;9.028;2023-05-14T12:09:21;23.00;92.40
24103;DHT22;12278;53.058;9.028;2023-05-14T12:13:31;23.70;92.40
24103;DHT22;12278;53.058;9.028;2023-05-14T12:17:32;24.20;91.20
24103;DHT22;12278;53.058;9.028;2023-05-14T12:21:33;24.70;90.70
24103;DHT22;12278;53.058;9.028;2023-05-14T12:25:34;24.80;84.90
24103;DHT22;12278;53.058;9.028;2023-05-14T12:29:36;24.90;88.80
24103;DHT22;12278;53.058;9.028;2023-05-14T12:33:38;24.90;89.20
24103;DHT22;12278;53.058;9.028;2023-05-14T12:37:38;25.20;90.40
24103;DHT22;12278;53.058;9.028;2023-05-14T12:41:39;24.80;84.30
24103;DHT22;12278;53.058;9.028;2023-05-14T12:45:40;25.10;85.50
24103;DHT22;12278;53.058;9.028;2023-05-14T12:49:40;25.20;88.50
24103;DHT22;12278;53.058;9.028;2023-05-14T12:53:41;24.50;84.20
24103;DHT22;12278;53.058;9.028;2023-05-14T12:57:42;25.20;84.90
24103;DHT22;12278;53.058;9.028;2023-05-14T13:01:42;25.60;82.20
24103;DHT22;12278;53.058;9.028;2023-05-14T13:05:43;26.20;81.50
24103;DHT22;12278;53.058;9.028;2023-05-14T13:09:43;26.50;80.90
24103;DHT22;12278;53.058;9.028;2023-05-14T13:13:44;25.30;80.60
24103;DHT22;12278;53.058;9.028;2023-05-14T13:17:45;25.40;81.70
24103;DHT22;12278;53.058;9.028;2023-05-14T13:21:45;24.00;84.20
24103;DHT22;12278;53.058;9.028;2023-05-14T13:25:46;23.70;86.50
24103;DHT22;12278;53.058;9.028;2023-05-14T13:29:47;25.10;81.40
24103;DHT22;12278;53.058;9.028;2023-05-14T13:33:47;26.10;79.30
24103;DHT22;12278;53.058;9.028;2023-05-14T13:37:48;26.10;80.80
24103;DHT22;12278;53.058;9.028;2023-05-14T13:41:49;26.90;77.20
24103;DHT22;12278;53.058;9.028;2023-05-14T13:45:50;28.50;71.70
24103;DHT22;12278;53.058;9.028;2023-05-14T13:49:54;27.60;79.20
24103;DHT22;12278;53.058;9.028;2023-05-14T13:53:55;28.70;78.60
24103;DHT22;12278;53.058;9.028;2023-05-14T13:57:56;29.90;72.20
24103;DHT22;12278;53.058;9.028;2023-05-14T14:01:58;30.40;69.00
24103;DHT22;12278;53.058;9.028;2023-05-14T14:05:59;28.30;69.30
24103;DHT22;12278;53.058;9.028;2023-05-14T14:09:59;25.90;73.70
24103;DHT22;12278;53.058;9.028;2023-05-14T14:14:01;24.30;75.60
24103;DHT22;12278;53.058;9.028;2023-05-14T14:18:02;23.80;79.80
24103;DHT22;12278;53.058;9.028;2023-05-14T14:22:03;23.60;81.10
24103;DHT22;12278;53.058;9.028;2023-05-14T14:26:04;25.70;75.60
24103;DHT22;12278;53.058;9.028;2023-05-14T14:30:06;28.00;64.50
24103;DHT22;12278;53.058;9.028;2023-05-14T14:34:07;29.20;62.60
24103;DHT22;12278;53.058;9.028;2023-05-14T14:38:08;29.80;62.00
24103;DHT22;12278;53.058;9.028;2023-05-14T14:42:08;30.50;54.10
24103;DHT22;12278;53.058;9.028;2023-05-14T14:46:09;31.00;55.40
24103;DHT22;12278;53.058;9.028;2023-05-14T14:50:11;31.50;55.00
24103;DHT22;12278;53.058;9.028;2023-05-14T14:54:12;32.20;55.90
24103;DHT22;12278;53.058;9.028;2023-05-14T14:58:12;32.20;55.20
24103;DHT22;12278;53.058;9.028;2023-05-14T15:02:13;31.70;51.50
24103;DHT22;12278;53.058;9.028;2023-05-14T15:06:14;31.70;51.30
24103;DHT22;12278;53.058;9.028;2023-05-14T15:10:14;31.30;52.20
24103;DHT22;12278;53.058;9.028;2023-05-14T15:14:15;29.60;50.80
24103;DHT22;12278;53.058;9.028;2023-05-14T15:18:16;26.80;55.00
24103;DHT22;12278;53.058;9.028;2023-05-14T15:22:16;26.00;63.50
24103;DHT22;12278;53.058;9.028;2023-05-14T15:26:17;28.10;59.60
24103;DHT22;12278;53.058;9.028;2023-05-14T15:30:18;29.50;55.80
24103;DHT22;12278;53.058;9.028;2023-05-14T15:34:19;30.40;52.50
24103;DHT22;12278;53.058;9.028;2023-05-14T15:38:19;30.50;52.00
24103;DHT22;12278;53.058;9.028;2023-05-14T15:42:20;30.20;50.50
24103;DHT22;12278;53.058;9.028;2023-05-14T15:46:21;30.00;51.90
24103;DHT22;12278;53.058;9.028;2023-05-14T15:50:22;30.30;51.50
24103;DHT22;12278;53.058;9.028;2023-05-14T15:54:25;29.90;53.30
24103;DHT22;12278;53.058;9.028;2023-05-14T15:58:26;28.40;56.40
24103;DHT22;12278;53.058;9.028;2023-05-14T16:02:27;25.60;59.60
24103;DHT22;12278;53.058;9.028;2023-05-14T16:06:29;22.90;66.70
24103;DHT22;12278;53.058;9.028;2023-05-14T16:10:30;22.00;74.00
24103;DHT22;12278;53.058;9.028;2023-05-14T16:14:33;21.60;77.20
24103;DHT22;12278;53.058;9.028;2023-05-14T16:18:33;21.50;79.30
24103;DHT22;12278;53.058;9.028;2023-05-14T16:22:34;21.40;81.30
24103;DHT22;12278;53.058;9.028;2023-05-14T16:26:35;21.20;83.90
24103;DHT22;12278;53.058;9.028;2023-05-14T16:30:36;20.90;84.20
24103;DHT22;12278;53.058;9.028;2023-05-14T16:34:37;21.00;84.80
24103;DHT22;12278;53.058;9.028;2023-05-14T16:38:37;20.80;85.70
24103;DHT22;12278;53.058;9.028;2023-05-14T16:42:38;20.70;87.80
24103;DHT22;12278;53.058;9.028;2023-05-14T16:46:39;20.60;89.20
24103;DHT22;12278;53.058;9.028;2023-05-14T16:50:39;20.50;88.90
24103;DHT22;12278;53.058;9.028;2023-05-14T16:54:40;20.50;90.50
24103;DHT22;12278;53.058;9.028;2023-05-14T16:58:41;20.50;91.00
24103;DHT22;12278;53.058;9.028;2023-05-14T17:02:41;20.40;90.30
24103;DHT22;12278;53.058;9.028;2023-05-14T17:06:42;20.40;90.50
24103;DHT22;12278;53.058;9.028;2023-05-14T17:10:43;20.40;90.90
24103;DHT22;12278;53.058;9.028;2023-05-14T17:14:43;20.60;92.50
24103;DHT22;12278;53.058;9.028;2023-05-14T17:18:44;20.70;91.40
24103;DHT22;12278;53.058;9.028;2023-05-14T17:22:45;20.70;91.40
24103;DHT22;12278;53.058;9.028;2023-05-14T17:26:46;20.50;89.70
24103;DHT22;12278;53.058;9.028;2023-05-14T17:30:46;20.50;90.40
24103;DHT22;12278;53.058;9.028;2023-05-14T17:34:47;20.40;91.50
24103;DHT22;12278;53.058;9.028;2023-05-14T17:38:47;20.30;90.70
24103;DHT22;12278;53.058;9.028;2023-05-14T17:42:48;20.20;90.80
24103;DHT22;12278;53.058;9.028;2023-05-14T17:46:49;20.20;91.50
24103;DHT22;12278;53.058;9.028;2023-05-14T17:50:50;20.10;91.50
24103;DHT22;12278;53.058;9.028;2023-05-14T17:54:51;20.10;93.60
24103;DHT22;12278;53.058;9.028;2023-05-14T17:58:51;20.10;92.70
24103;DHT22;12278;53.058;9.028;2023-05-14T18:02:52;20.10;93.70
24103;DHT22;12278;53.058;9.028;2023-05-14T18:06:53;20.00;94.20
24103;DHT22;12278;53.058;9.028;2023-05-14T18:10:53;19.90;93.00
24103;DHT22;12278;53.058;9.028;2023-05-14T18:14:54;19.80;95.00
24103;DHT22;12278;53.058;9.028;2023-05-14T18:18:55;19.70;96.60
24103;DHT22;12278;53.058;9.028;2023-05-14T18:23:00;19.60;96.80
24103;DHT22;12278;53.058;9.028;2023-05-14T18:27:01;19.50;97.90
24103;DHT22;12278;53.058;9.028;2023-05-14T18:31:01;19.40;99.00
24103;DHT22;12278;53.058;9.028;2023-05-14T18:35:05;19.20;99.10
24103;DHT22;12278;53.058;9.028;2023-05-14T18:39:06;19.00;99.90
24103;DHT22;12278;53.058;9.028;2023-05-14T18:43:06;18.70;99.90
24103;DHT22;12278;53.058;9.028;2023-05-14T18:47:07;18.60;99.90
24103;DHT22;12278;53.058;9.028;2023-05-14T18:51:08;18.40;99.90
24103;DHT22;12278;53.058;9.028;2023-05-14T18:55:10;18.20;99.90
24103;DHT22;12278;53.058;9.028;2023-05-14T18:59:11;18.00;99.90
24103;DHT22;12278;53.058;9.028;2023-05-14T19:03:11;18.00;99.90
24103;DHT22;12278;53.058;9.028;2023-05-14T19:07:12;17.90;99.90
24103;DHT22;12278;53.058;9.028;2023-05-14T19:11:14;17.60;99.90
24103;DHT22;12278;53.058;9.028;2023-05-14T19:15:15;17.50;99.90
24103;DHT22;12278;53.058;9.028;2023-05-14T19:19:16;17.40;99.90
24103;DHT22;12278;53.058;9.028;2023-05-14T19:23:17;17.20;99.90
24103;DHT22;12278;53.058;9.028;2023-05-14T19:27:17;17.10;99.90
24103;DHT22;12278;53.058;9.028;2023-05-14T19:31:18;17.00;99.90
24103;DHT22;12278;53.058;9.028;2023-05-14T19:35:19;16.90;99.90
24103;DHT22;12278;53.058;9.028;2023-05-14T19:39:20;16.70;99.90
24103;DHT22;12278;53.058;9.028;2023-05-14T19:43:21;16.40;99.90
24103;DHT22;12278;53.058;9.028;2023-05-14T19:47:22;16.20;99.90
24103;DHT22;12278;53.058;9.028;2023-05-14T19:51:23;16.30;99.90
24103;DHT22;12278;53.058;9.028;2023-05-14T19:55:24;16.20;99.90
24103;DHT22;12278;53.058;9.028;2023-05-14T19:59:25;16.20;99.90
24103;DHT22;12278;53.058;9.028;2023-05-14T20:03:26;16.20;99.90
24103;DHT22;12278;53.058;9.028;2023-05-14T20:07:26;16.30;99.90
24103;DHT22;12278;53.058;9.028;2023-05-14T20:11:29;16.30;99.90
24103;DHT22;12278;53.058;9.028;2023-05-14T20:15:31;16.40;99.90
24103;DHT22;12278;53.058;9.028;2023-05-14T20:19:32;16.30;99.90
24103;DHT22;12278;53.058;9.028;2023-05-14T20:23:34;16.30;99.90
24103;DHT22;12278;53.058;9.028;2023-05-14T20:27:34;16.10;99.90
24103;DHT22;12278;53.058;9.028;2023-05-14T20:31:35;16.20;99.90
24103;DHT22;12278;53.058;9.028;2023-05-14T20:35:36;16.20;99.90
24103;DHT22;12278;53.058;9.028;2023-05-14T20:39:36;16.20;99.90
24103;DHT22;12278;53.058;9.028;2023-05-14T20:43:39;16.00;99.90
24103;DHT22;12278;53.058;9.028;2023-05-14T20:47:40;15.70;99.90
24103;DHT22;12278;53.058;9.028;2023-05-14T20:51:41;15.50;99.90
24103;DHT22;12278;53.058;9.028;2023-05-14T20:55:42;15.50;99.90
24103;DHT22;12278;53.058;9.028;2023-05-14T20:59:47;15.40;99.90
24103;DHT22;12278;53.058;9.028;2023-05-14T21:03:48;15.50;99.90
24103;DHT22;12278;53.058;9.028;2023-05-14T21:07:49;15.50;99.90
24103;DHT22;12278;53.058;9.028;2023-05-14T21:11:49;15.40;99.90
24103;DHT22;12278;53.058;9.028;2023-05-14T21:15:50;15.40;99.90
24103;DHT22;12278;53.058;9.028;2023-05-14T21:19:51;15.40;99.90
24103;DHT22;12278;53.058;9.028;2023-05-14T21:23:51;15.40;99.90
24103;DHT22;12278;53.058;9.028;2023-05-14T21:27:52;15.20;99.90
24103;DHT22;12278;53.058;9.028;2023-05-14T21:31:53;15.10;99.90
24103;DHT22;12278;53.058;9.028;2023-05-14T21:35:54;15.10;99.90
24103;DHT22;12278;53.058;9.028;2023-05-14T21:39:54;15.00;99.90
24103;DHT22;12278;53.058;9.028;2023-05-14T21:43:55;14.90;99.90
24103;DHT22;12278;53.058;9.028;2023-05-14T21:47:56;14.90;99.90
24103;DHT22;12278;53.058;9.028;2023-05-14T21:51:56;14.80;99.90
24103;DHT22;12278;53.058;9.028;2023-05-14T21:55:58;14.80;99.90
24103;DHT22;12278;53.058;9.028;2023-05-14T21:59:59;14.80;99.90
24103;DHT22;12278;53.058;9.028;2023-05-14T22:03:59;14.80;99.90
24103;DHT22;12278;53.058;9.028;2023-05-14T22:08:02;14.80;99.90
24103;DHT22;12278;53.058;9.028;2023-05-14T22:12:03;14.90;99.90
24103;DHT22;12278;53.058;9.028;2023-05-14T22:16:07;14.80;99.90
24103;DHT22;12278;53.058;9.028;2023-05-14T22:20:08;14.70;99.90
24103;DHT22;12278;53.058;9.028;2023-05-14T22:24:11;14.80;99.90
24103;DHT22;12278;53.058;9.028;2023-05-14T22:28:12;14.70;99.90
24103;DHT22;12278;53.058;9.028;2023-05-14T22:32:13;14.70;99.90
24103;DHT22;12278;53.058;9.028;2023-05-14T22:36:14;14.50;99.90
24103;DHT22;12278;53.058;9.028;2023-05-14T22:40:15;14.50;99.90
24103;DHT22;12278;53.058;9.028;2023-05-14T22:44:16;14.40;99.90
24103;DHT22;12278;53.058;9.028;2023-05-14T22:48:16;14.40;99.90
24103;DHT22;12278;53.058;9.028;2023-05-14T22:52:17;14.20;99.90
24103;DHT22;12278;53.058;9.028;2023-05-14T22:56:21;14.10;99.90
24103;DHT22;12278;53.058;9.028;2023-05-14T23:00:22;14.10;99.90
24103;DHT22;12278;53.058;9.028;2023-05-14T23:04:23;14.00;99.90
24103;DHT22;12278;53.058;9.028;2023-05-14T23:08:23;13.90;99.90
24103;DHT22;12278;53.058;9.028;2023-05-14T23:12:24;13.70;99.90
24103;DHT22;12278;53.058;9.028;2023-05-14T23:16:25;13.60;99.90
24103;DHT22;12278;53.058;9.028;2023-05-14T23:20:26;13.60;99.90
24103;DHT22;12278;53.058;9.028;2023-05-14T23:24:26;13.60;99.90
24103;DHT22;12278;53.058;9.028;2023-05-14T23:28:27;13.50;99.90
24103;DHT22;12278;53.058;9.028;2023-05-14T23:32:28;13.40;99.90
24103;DHT22;12278;53.058;9.028;2023-05-14T23:36:28;13.30;99.90
24103;DHT22;12278;53.058;9.028;2023-05-14T23:40:32;13.30;99.90
24103;DHT22;12278;53.058;9.028;2023-05-14T23:44:33;13.20;99.90
24103;DHT22;12278;53.058;9.028;2023-05-14T23:48:34;13.10;99.90
24103;DHT22;12278;53.058;9.028;2023-05-14T23:52:34;13.10;99.90
24103;DHT22;12278;53.058;9.028;2023-05-14T23:56:35;13.10;99.90
